Time;durP1;ratioP1;P1;durP2;ratioP2;P2;SDS_P1;SDS_P2;PMS_P1;PMS_P2;Temp;Humidity;BMP_temperature;BMP_pressure;BME280_temperature;BME280_humidity;BME280_pressure;Samples;Min_cycle;Max_cycle;Signal;HPM_P1;HPM_P2
2022/11/14 00:02:02;;;;;;;12.10;7.28;;;;;;;10.81;100.00;94993.56;5078245;28;20172;-86
2022/11/14 00:04:28;;;;;;;10.23;7.10;;;;;;;10.60;100.00;94996.06;5079950;28;20032;-86
2022/11/14 00:06:54;;;;;;;12.00;7.47;;;;;;;10.81;100.00;94988.34;5079436;28;20036;-84
2022/11/14 00:09:23;;;;;;;10.70;6.28;;;;;;;10.86;100.00;94990.97;5078188;28;20127;-86
2022/11/14 00:11:48;;;;;;;12.98;7.00;;;;;;;10.86;100.00;94982.34;5078005;28;20464;-84
2022/11/14 00:14:14;;;;;;;13.63;7.72;;;;;;;10.73;100.00;94979.13;5079222;28;20040;-86
2022/11/14 00:16:40;;;;;;;10.38;6.88;;;;;;;10.66;100.00;94975.13;5076961;28;20028;-84
2022/11/14 00:19:05;;;;;;;11.90;7.55;;;;;;;10.32;100.00;94978.78;5079490;28;20029;-84
2022/11/14 00:21:30;;;;;;;11.77;6.78;;;;;;;10.62;100.00;94980.09;5079086;28;20036;-84
2022/11/14 00:23:56;;;;;;;10.93;6.43;;;;;;;10.76;100.00;94972.59;5079445;28;20082;-86
2022/11/14 00:26:22;;;;;;;14.88;7.50;;;;;;;10.50;100.00;94972.41;5061126;28;20487;-84
2022/11/14 00:28:48;;;;;;;13.32;8.05;;;;;;;10.40;100.00;94960.00;5079687;28;20119;-84
2022/11/14 00:31:13;;;;;;;12.35;8.00;;;;;;;10.49;100.00;94965.59;5077955;28;20035;-84
2022/11/14 00:33:39;;;;;;;14.90;8.27;;;;;;;10.31;100.00;94966.75;5078133;28;20028;-84
2022/11/14 00:36:04;;;;;;;19.08;7.88;;;;;;;10.49;100.00;94964.78;5078328;28;20028;-84
2022/11/14 00:38:31;;;;;;;16.95;8.02;;;;;;;10.59;100.00;94968.25;5077776;28;20020;-84
2022/11/14 00:40:56;;;;;;;11.50;7.38;;;;;;;10.56;100.00;94963.53;5077925;28;20119;-86
2022/11/14 00:43:22;;;;;;;12.68;7.72;;;;;;;10.67;100.00;94961.00;5077655;28;20072;-87
2022/11/14 00:45:47;;;;;;;10.10;6.93;;;;;;;10.70;100.00;94965.72;5078170;28;20032;-84
2022/11/14 00:48:14;;;;;;;11.27;7.22;;;;;;;10.61;100.00;94968.03;5044644;28;20032;-84
2022/11/14 00:50:40;;;;;;;12.88;7.70;;;;;;;10.62;100.00;94968.84;5077902;28;20028;-84
2022/11/14 00:53:05;;;;;;;13.07;7.97;;;;;;;10.70;100.00;94963.91;5077448;28;20094;-84
2022/11/14 00:55:31;;;;;;;12.75;8.10;;;;;;;10.73;100.00;94965.22;5077406;28;20020;-84
2022/11/14 00:57:56;;;;;;;11.85;7.40;;;;;;;10.90;100.00;94970.28;5078072;28;20089;-84
2022/11/14 01:00:22;;;;;;;11.18;7.25;;;;;;;10.96;100.00;94973.75;5078241;28;20035;-84
2022/11/14 01:02:48;;;;;;;10.63;6.85;;;;;;;10.95;100.00;94972.16;5078453;28;20418;-84
2022/11/14 01:05:13;;;;;;;11.63;7.15;;;;;;;10.87;100.00;94971.59;5076411;28;20119;-87
2022/11/14 01:07:39;;;;;;;14.95;8.35;;;;;;;10.68;100.00;94968.59;5060563;28;20087;-84
2022/11/14 01:10:05;;;;;;;14.85;7.45;;;;;;;10.80;100.00;94968.41;5076950;28;20039;-86
2022/11/14 01:12:30;;;;;;;12.40;6.80;;;;;;;10.70;100.00;94971.75;5060724;28;20024;-86
2022/11/14 01:14:56;;;;;;;10.38;6.60;;;;;;;10.78;100.00;94972.31;5078099;28;20064;-86
2022/11/14 01:17:21;;;;;;;13.57;7.40;;;;;;;10.88;100.00;94973.16;5077312;28;20036;-86
2022/11/14 01:19:47;;;;;;;13.00;8.38;;;;;;;10.94;100.00;94973.22;5077729;28;20036;-84
2022/11/14 01:22:12;;;;;;;17.77;8.27;;;;;;;10.70;100.00;94974.38;5060196;28;20082;-84
2022/11/14 01:24:38;;;;;;;13.02;8.15;;;;;;;10.45;100.00;94975.78;5060093;28;20387;-86
2022/11/14 01:27:03;;;;;;;14.50;7.82;;;;;;;10.23;100.00;94983.69;5078123;28;20040;-84
2022/11/14 01:29:28;;;;;;;14.85;8.10;;;;;;;10.27;100.00;94973.53;5076708;28;20030;-86
2022/11/14 01:31:54;;;;;;;12.63;8.20;;;;;;;10.59;100.00;94968.25;5059851;28;20119;-86
2022/11/14 01:34:20;;;;;;;17.38;8.20;;;;;;;10.41;100.00;94969.47;5077186;28;20051;-86
2022/11/14 01:36:46;;;;;;;12.80;7.95;;;;;;;10.65;100.00;94963.84;5076487;28;20048;-84
2022/11/14 01:39:21;;;;;;;79.13;9.38;;;;;;;10.77;100.00;94961.06;5077502;28;20040;-86
2022/11/14 01:41:46;;;;;;;77.85;9.52;;;;;;;10.62;100.00;94963.59;5077530;28;20119;-84
2022/11/14 01:44:16;;;;;;;35.03;7.65;;;;;;;10.81;100.00;94962.13;5076667;28;20422;-84
2022/11/14 01:46:45;;;;;;;15.18;7.53;;;;;;;10.78;100.00;94965.25;5059878;28;20342;-86
2022/11/14 01:49:21;;;;;;;12.13;7.78;;;;;;;10.94;100.00;94960.09;5076321;28;20028;-84
2022/11/14 01:51:57;;;;;;;13.73;8.73;;;;;;;10.91;100.00;94955.38;5076504;28;20095;-86
2022/11/14 01:54:27;;;;;;;14.60;8.07;;;;;;;10.91;100.00;94955.38;5059640;28;20032;-86
2022/11/14 01:56:58;;;;;;;17.98;7.88;;;;;;;10.96;100.00;94950.16;5076202;28;20031;-86
2022/11/14 01:59:28;;;;;;;16.20;8.93;;;;;;;10.43;100.00;94941.19;5076236;28;20376;-86
2022/11/14 02:01:55;;;;;;;15.90;9.85;;;;;;;10.21;100.00;94936.03;5075923;28;20028;-86
2022/11/14 02:04:27;;;;;;;23.77;10.10;;;;;;;10.35;100.00;94940.84;5076096;28;20433;-87
2022/11/14 02:06:55;;;;;;;16.40;9.50;;;;;;;10.53;100.00;94943.09;5076223;28;20460;-84
2022/11/14 02:09:21;;;;;;;15.32;9.65;;;;;;;10.50;100.00;94946.22;5075995;28;20029;-84
2022/11/14 02:11:47;;;;;;;17.20;9.82;;;;;;;10.14;100.00;94957.19;5058829;28;20460;-86
2022/11/14 02:14:12;;;;;;;18.10;9.65;;;;;;;10.13;100.00;94953.00;5058856;28;20028;-84
2022/11/14 02:16:40;;;;;;;14.52;9.23;;;;;;;10.65;100.00;94944.75;5075894;28;20034;-86
2022/11/14 02:19:06;;;;;;;19.10;10.15;;;;;;;10.80;100.00;94949.25;5058984;28;20036;-85
2022/11/14 02:21:32;;;;;;;18.98;8.50;;;;;;;10.89;100.00;94943.28;5077406;28;20028;-87
2022/11/14 02:23:57;;;;;;;16.83;7.35;;;;;;;10.93;100.00;94935.69;5059497;28;20333;-84
2022/11/14 02:26:23;;;;;;;125.70;10.52;;;;;;;10.82;100.00;94934.88;5076786;28;20036;-86
2022/11/14 02:28:49;;;;;;;19.08;8.77;;;;;;;10.99;100.00;94933.91;5058800;28;20032;-87
2022/11/14 02:31:15;;;;;;;13.85;8.70;;;;;;;10.97;100.00;94949.88;5059172;28;20058;-86
2022/11/14 02:33:40;;;;;;;166.85;14.63;;;;;;;10.85;100.00;94944.84;5059216;28;20417;-86
2022/11/14 02:36:07;;;;;;;14.70;9.05;;;;;;;10.85;100.00;94944.84;5201980;22;20101;-85
2022/11/14 02:38:32;;;;;;;18.17;9.48;;;;;;;10.96;100.00;94937.81;5078343;28;20039;-85
2022/11/14 02:41:01;;;;;;;25.65;10.00;;;;;;;11.03;100.00;94941.00;5078549;28;20028;-85
2022/11/14 02:43:27;;;;;;;25.65;9.55;;;;;;;10.82;100.00;94936.69;5071078;28;20127;-86
2022/11/14 02:45:55;;;;;;;17.48;10.25;;;;;;;10.96;100.00;94934.41;5087626;28;20066;-85
2022/11/14 02:48:22;;;;;;;13.73;8.85;;;;;;;10.95;100.00;94924.97;5070162;28;20020;-85
2022/11/14 02:50:48;;;;;;;16.83;10.13;;;;;;;10.96;100.00;94932.56;5066570;28;20028;-86
2022/11/14 02:53:14;;;;;;;15.35;9.60;;;;;;;10.94;100.00;94933.88;5078948;28;20024;-86
2022/11/14 02:55:40;;;;;;;20.10;10.60;;;;;;;10.56;100.00;94928.69;5061979;28;20028;-86
2022/11/14 02:58:06;;;;;;;16.95;9.75;;;;;;;10.84;100.00;94930.16;5078746;28;20497;-87
2022/11/14 03:00:32;;;;;;;14.80;9.10;;;;;;;10.96;100.00;94926.53;5078745;28;20027;-87
2022/11/14 03:02:57;;;;;;;14.95;9.30;;;;;;;10.87;100.00;94924.41;5078858;28;20371;-87
2022/11/14 03:05:23;;;;;;;17.08;8.95;;;;;;;10.84;100.00;94929.38;5079220;28;20404;-87
2022/11/14 03:07:52;;;;;;;15.50;9.10;;;;;;;10.94;100.00;94939.13;5078970;28;20031;-86
2022/11/14 03:10:18;;;;;;;14.93;8.38;;;;;;;10.77;100.00;94934.84;5056847;28;20028;-87
2022/11/14 03:12:43;;;;;;;16.35;9.55;;;;;;;10.64;100.00;94943.16;5061921;28;20400;-87
2022/11/14 03:15:09;;;;;;;16.02;10.00;;;;;;;10.44;100.00;94941.97;5061711;28;20028;-87
2022/11/14 03:17:35;;;;;;;18.05;11.02;;;;;;;10.39;100.00;94947.16;5061832;28;20032;-86
2022/11/14 03:20:19;;;;;;;19.85;11.35;;;;;;;10.51;100.00;94947.78;5061123;28;20028;-87
2022/11/14 03:22:47;;;;;;;22.90;12.02;;;;;;;10.76;100.00;94943.75;5078570;28;20024;-87
2022/11/14 03:25:13;;;;;;;507.08;31.00;;;;;;;10.51;100.00;94950.41;5078431;28;20119;-87
2022/11/14 03:27:38;;;;;;;20.13;11.85;;;;;;;10.65;100.00;94950.75;5078569;28;20412;-87
2022/11/14 03:30:04;;;;;;;27.23;15.05;;;;;;;10.59;100.00;94938.66;5062047;28;20058;-87
2022/11/14 03:32:29;;;;;;;27.33;13.73;;;;;;;10.46;100.00;94942.50;5078232;28;20024;-86
2022/11/14 03:34:55;;;;;;;24.73;14.07;;;;;;;10.36;100.00;94945.03;5078406;28;20028;-86
2022/11/14 03:37:20;;;;;;;24.73;15.25;;;;;;;10.32;100.00;94944.75;5078066;28;20081;-87
2022/11/14 03:39:46;;;;;;;25.20;15.45;;;;;;;10.65;100.00;94936.88;5096125;28;20082;-86
2022/11/14 03:42:11;;;;;;;26.00;15.65;;;;;;;10.55;100.00;94941.00;5061226;28;20028;-86
2022/11/14 03:44:36;;;;;;;23.55;14.27;;;;;;;10.74;100.00;94943.19;5078373;28;20412;-87
2022/11/14 03:47:02;;;;;;;46.92;14.88;;;;;;;10.64;100.00;94940.53;5078210;28;20020;-86
2022/11/14 03:49:27;;;;;;;47.97;15.05;;;;;;;10.54;100.00;94944.66;5078482;28;20111;-86
2022/11/14 03:51:53;;;;;;;27.30;13.40;;;;;;;10.46;100.00;94951.16;5099386;28;20028;-86
2022/11/14 03:54:21;;;;;;;42.70;14.68;;;;;;;10.82;100.00;94942.72;5081703;28;20134;-86
2022/11/14 03:56:47;;;;;;;35.80;14.60;;;;;;;10.50;100.00;94940.97;5081605;28;20352;-87
2022/11/14 03:59:12;;;;;;;22.48;13.65;;;;;;;10.81;100.00;94935.91;5082124;28;20027;-86
2022/11/14 04:01:38;;;;;;;23.02;14.02;;;;;;;10.76;100.00;94941.13;5099460;28;20032;-87
2022/11/14 04:04:03;;;;;;;26.27;14.52;;;;;;;10.86;100.00;94932.53;5081954;28;20028;-86
2022/11/14 04:06:29;;;;;;;29.08;14.85;;;;;;;10.56;100.00;94923.47;5081693;28;20024;-86
2022/11/14 04:08:55;;;;;;;27.52;14.32;;;;;;;10.26;100.00;94920.34;5100028;28;20040;-87
2022/11/14 04:11:21;;;;;;;32.15;15.95;;;;;;;10.10;100.00;94916.03;5081629;28;20039;-87
2022/11/14 04:13:46;;;;;;;79.57;16.67;;;;;;;10.19;100.00;94925.78;5074139;28;20028;-87
2022/11/14 04:16:12;;;;;;;30.65;15.63;;;;;;;10.25;100.00;94934.47;5069681;28;20025;-87
2022/11/14 04:18:39;;;;;;;29.50;17.10;;;;;;;10.16;100.00;94946.44;5069854;28;20024;-87
2022/11/14 04:21:05;;;;;;;38.17;18.63;;;;;;;10.10;100.00;94942.22;5054925;28;20039;-87
2022/11/14 04:23:30;;;;;;;36.03;19.10;;;;;;;10.15;100.00;94937.00;5064770;28;20024;-87
2022/11/14 04:25:56;;;;;;;39.38;18.83;;;;;;;10.28;100.00;94926.13;5045149;28;20017;-86
2022/11/14 04:29:23;;;;;;;39.20;19.70;;;;;;;10.35;100.00;94935.59;5061179;28;20028;-87
2022/11/14 04:31:16;;;;;;;34.10;17.70;;;;;;;10.15;100.00;94934.41;5043379;28;20024;-87
2022/11/14 04:33:42;;;;;;;37.42;17.92;;;;;;;10.50;100.00;94937.56;5079839;28;20078;-87
2022/11/14 04:36:07;;;;;;;42.30;17.40;;;;;;;10.24;100.00;94925.03;5061562;28;20032;-87
2022/11/14 04:38:33;;;;;;;68.85;19.25;;;;;;;10.13;100.00;94920.78;5079243;28;20016;-87
2022/11/14 04:40:58;;;;;;;155.93;21.25;;;;;;;10.17;100.00;94921.84;5061084;28;20024;-86
2022/11/14 04:43:23;;;;;;;171.85;21.38;;;;;;;10.29;100.00;94916.44;5044859;28;20143;-86
2022/11/14 04:45:49;;;;;;;36.33;19.27;;;;;;;10.31;100.00;94917.75;5079065;28;20073;-87
2022/11/14 04:48:14;;;;;;;35.80;18.92;;;;;;;10.20;100.00;94918.75;5044869;28;20027;-87
2022/11/14 04:50:40;;;;;;;47.58;20.35;;;;;;;10.05;100.00;94922.03;5061216;28;20032;-87
2022/11/14 04:53:05;;;;;;;43.33;20.20;;;;;;;10.09;100.00;94919.69;5061181;28;20119;-86
2022/11/14 04:55:31;;;;;;;68.25;22.48;;;;;;;10.04;100.00;94923.06;5060904;28;20025;-87
2022/11/14 04:57:57;;;;;;;55.00;22.75;;;;;;;10.10;100.00;94922.03;5061330;28;20326;-87
2022/11/14 05:00:23;;;;;;;53.47;21.45;;;;;;;10.26;100.00;94919.56;5060565;28;20020;-86
2022/11/14 05:02:49;;;;;;;161.20;22.20;;;;;;;10.38;100.00;94928.00;5059993;28;20020;-86
2022/11/14 05:05:15;;;;;;;121.35;20.50;;;;;;;10.17;100.00;94922.63;5060056;28;20153;-86
2022/11/14 05:07:40;;;;;;;42.47;18.98;;;;;;;10.44;100.00;94931.50;5060207;28;20047;-86
2022/11/14 05:10:07;;;;;;;87.88;19.45;;;;;;;10.40;100.00;94927.78;5059918;28;20103;-86
2022/11/14 05:12:32;;;;;;;46.50;19.20;;;;;;;10.36;100.00;94932.72;5043551;28;20455;-86
2022/11/14 05:19:16;;;;;;;171.27;19.40;;;;;;;10.83;100.00;94933.81;5079427;28;20077;-86
2022/11/14 05:21:41;;;;;;;112.68;20.65;;;;;;;10.56;100.00;94934.72;5073084;28;20047;-86
2022/11/14 05:24:12;;;;;;;612.55;42.97;;;;;;;10.23;100.00;94931.31;5080162;28;20023;-86
2022/11/14 05:26:38;;;;;;;852.35;54.65;;;;;;;10.32;100.00;94942.91;5080714;28;20119;-86
2022/11/14 05:29:04;;;;;;;258.50;26.00;;;;;;;10.37;100.00;94939.53;5080278;28;20126;-86
2022/11/14 05:31:29;;;;;;;174.60;25.30;;;;;;;10.28;100.00;94938.44;5062581;28;20024;-86
2022/11/14 05:33:54;;;;;;;53.20;21.38;;;;;;;10.31;100.00;94933.47;5084284;28;20436;-85
2022/11/14 05:36:20;;;;;;;206.75;25.92;;;;;;;10.19;100.00;94938.88;5079606;28;20111;-85
2022/11/14 05:38:45;;;;;;;870.83;52.88;;;;;;;10.18;100.00;94944.38;5080012;28;20448;-85
2022/11/14 05:41:16;;;;;;;92.35;22.88;;;;;;;10.49;100.00;94943.84;5079377;28;20027;-84
2022/11/14 05:43:42;;;;;;;44.92;21.10;;;;;;;10.53;100.00;94944.91;5079684;28;20035;-85
2022/11/14 05:46:12;;;;;;;45.92;21.02;;;;;;;10.86;100.00;94948.25;5079547;28;20115;-85
2022/11/14 05:48:38;;;;;;;44.65;19.67;;;;;;;10.82;100.00;94955.84;5063085;28;20441;-85
2022/11/14 05:51:05;;;;;;;55.80;20.27;;;;;;;10.79;100.00;94948.50;5079249;28;20093;-85
2022/11/14 05:53:32;;;;;;;42.78;19.48;;;;;;;10.96;100.00;94961.41;5079666;28;20039;-85
2022/11/14 05:56:05;;;;;;;59.70;22.42;;;;;;;10.72;100.00;94950.53;5063009;28;20020;-86
2022/11/14 05:58:31;;;;;;;70.05;20.38;;;;;;;10.79;100.00;94964.22;5079518;28;20016;-85
2022/11/14 06:01:11;;;;;;;39.28;17.45;;;;;;;10.99;100.00;94957.50;5067687;28;20023;-85
2022/11/14 06:03:39;;;;;;;62.75;21.05;;;;;;;10.86;100.00;94954.28;5061991;28;20107;-85
2022/11/14 06:06:06;;;;;;;321.58;29.27;;;;;;;10.51;100.00;94958.28;5059449;28;20442;-85
2022/11/14 06:08:32;;;;;;;509.67;32.78;;;;;;;10.54;100.00;94952.53;5059636;28;20345;-85
2022/11/14 06:11:03;;;;;;;48.88;19.15;;;;;;;10.83;100.00;94956.63;5058753;28;20031;-85
2022/11/14 06:13:28;;;;;;;44.20;18.73;;;;;;;10.52;100.00;94967.72;5068983;28;20020;-85
2022/11/14 06:16:07;;;;;;;40.50;17.58;;;;;;;10.86;100.00;94975.25;5059868;28;20441;-89
2022/11/14 06:18:33;;;;;;;485.55;32.25;;;;;;;10.27;100.00;94968.28;5059688;28;20024;-84
2022/11/14 06:21:06;;;;;;;64.47;19.77;;;;;;;10.17;100.00;94971.59;5058683;28;20086;-84
2022/11/14 06:23:32;;;;;;;53.10;20.50;;;;;;;10.30;100.00;94980.88;5058108;28;20039;-85
2022/11/14 06:26:03;;;;;;;46.90;18.10;;;;;;;10.56;100.00;94968.78;5076941;28;20028;-87
2022/11/14 06:28:28;;;;;;;453.85;33.00;;;;;;;10.33;100.00;94972.50;5059570;28;20055;-86
2022/11/14 06:31:01;;;;;;;303.10;25.35;;;;;;;10.32;100.00;94976.94;5076371;28;20059;-86
2022/11/14 06:33:27;;;;;;;101.80;18.80;;;;;;;10.44;100.00;94983.88;5058938;28;20119;-86
2022/11/14 06:35:58;;;;;;;336.08;27.00;;;;;;;10.36;100.00;94977.25;5058878;28;20286;-87
2022/11/14 06:38:23;;;;;;;48.05;17.67;;;;;;;10.10;100.00;94982.25;5076808;28;20432;-87
2022/11/14 06:40:49;;;;;;;48.40;19.42;;;;;;;10.09;100.00;94977.28;5079156;28;20105;-87
2022/11/14 06:43:14;;;;;;;43.20;18.42;;;;;;;9.98;100.00;94982.44;5096168;28;20143;-87
2022/11/14 06:45:40;;;;;;;44.13;18.33;;;;;;;10.14;100.00;94972.91;5095844;28;20024;-87
2022/11/14 06:48:06;;;;;;;41.08;17.00;;;;;;;10.48;100.00;94974.50;5079482;28;20020;-87
2022/11/14 06:50:31;;;;;;;37.13;16.55;;;;;;;10.66;100.00;94970.66;5079252;28;20031;-87
2022/11/14 06:52:57;;;;;;;36.65;16.77;;;;;;;10.73;100.00;94971.25;5095942;28;20073;-86
2022/11/14 06:55:23;;;;;;;38.13;15.93;;;;;;;10.82;100.00;94976.81;5095577;28;20060;-87
2022/11/14 06:57:53;;;;;;;34.30;15.60;;;;;;;10.92;100.00;94980.53;5097166;28;20031;-87
2022/11/14 07:00:19;;;;;;;28.45;14.63;;;;;;;10.96;100.00;94979.75;5095383;28;20087;-86
2022/11/14 07:02:51;;;;;;;27.77;14.70;;;;;;;11.02;100.00;94976.13;5095789;28;20024;-87
2022/11/14 07:05:16;;;;;;;28.85;14.55;;;;;;;10.60;100.00;94977.72;5097332;28;20032;-87
2022/11/14 07:07:42;;;;;;;30.35;15.73;;;;;;;10.82;100.00;94983.88;5096072;28;20336;-87
2022/11/14 07:10:07;;;;;;;31.13;14.68;;;;;;;11.13;100.00;94990.06;5097079;28;20118;-87
2022/11/14 07:12:33;;;;;;;31.65;15.07;;;;;;;11.06;100.00;94988.72;5097186;28;20031;-87
2022/11/14 07:14:58;;;;;;;91.00;16.48;;;;;;;10.96;100.00;94984.22;5078944;28;20029;-87
2022/11/14 07:17:24;;;;;;;163.70;19.90;;;;;;;10.94;100.00;94992.34;5096883;28;20031;-87
2022/11/14 07:19:49;;;;;;;300.55;25.83;;;;;;;10.59;100.00;94986.59;5096815;28;20028;-87
2022/11/14 07:22:15;;;;;;;183.60;19.98;;;;;;;10.54;100.00;94988.41;5096714;28;20024;-87
2022/11/14 07:24:40;;;;;;;37.97;15.57;;;;;;;10.74;100.00;94982.50;5097576;28;20024;-87
2022/11/14 07:27:08;;;;;;;29.92;15.25;;;;;;;10.88;100.00;94980.25;5100006;28;20038;-87
2022/11/14 07:29:33;;;;;;;33.65;15.57;;;;;;;11.22;100.00;94993.00;5100797;28;20024;-87
2022/11/14 07:31:59;;;;;;;29.13;15.70;;;;;;;11.35;100.00;94994.38;5099113;28;20043;-87
2022/11/14 07:34:24;;;;;;;29.90;14.80;;;;;;;11.23;100.00;95001.66;5100562;28;20034;-86
2022/11/14 07:36:53;;;;;;;23.65;13.98;;;;;;;11.23;100.00;94988.56;5100933;28;20040;-87
2022/11/14 07:39:19;;;;;;;25.23;14.20;;;;;;;11.32;100.00;95000.13;5100669;28;20062;-87
2022/11/14 07:41:44;;;;;;;24.63;13.30;;;;;;;11.46;100.00;94998.59;5098890;28;20433;-87
2022/11/14 07:44:10;;;;;;;24.80;13.27;;;;;;;11.62;100.00;94995.25;5099712;28;20039;-87
2022/11/14 07:46:35;;;;;;;24.13;13.15;;;;;;;11.86;100.00;95001.63;5100713;28;20126;-86
2022/11/14 07:49:01;;;;;;;26.15;13.85;;;;;;;11.71;100.00;94998.97;5100151;28;20024;-86
2022/11/14 07:51:26;;;;;;;25.20;13.45;;;;;;;11.44;100.00;95000.69;5098717;28;20086;-86
2022/11/14 07:53:52;;;;;;;22.75;12.98;;;;;;;11.67;100.00;95011.00;5100129;28;20027;-86
2022/11/14 07:56:19;;;;;;;25.60;14.20;;;;;;;12.14;100.00;94999.63;5098734;28;20085;-86
2022/11/14 07:58:44;;;;;;;30.58;15.98;;;;;;;11.72;100.00;95006.56;5100307;28;20031;-87
2022/11/14 08:01:12;;;;;;;51.35;16.65;;;;;;;11.14;100.00;95007.38;5081847;28;20032;-86
2022/11/14 08:03:38;;;;;;;157.13;20.15;;;;;;;11.17;100.00;95001.63;5098765;28;20443;-86
2022/11/14 08:06:06;;;;;;;31.30;15.93;;;;;;;11.74;100.00;94993.19;5098705;28;20024;-86
2022/11/14 08:08:32;;;;;;;30.90;16.60;;;;;;;12.06;100.00;94989.59;5098670;28;20031;-86
2022/11/14 08:11:04;;;;;;;30.92;15.48;;;;;;;12.20;100.00;94997.78;5098055;28;20397;-86
2022/11/14 08:13:30;;;;;;;34.70;15.45;;;;;;;12.28;100.00;94994.63;5100035;28;20329;-87
2022/11/14 08:15:55;;;;;;;61.42;15.02;;;;;;;12.29;100.00;95000.69;5099938;28;20035;-87
2022/11/14 08:18:21;;;;;;;31.13;14.23;;;;;;;12.47;100.00;95007.22;5098784;28;20031;-86
2022/11/14 08:20:47;;;;;;;29.15;14.48;;;;;;;12.47;100.00;95004.59;5099576;28;20328;-86
2022/11/14 08:23:13;;;;;;;28.00;15.18;;;;;;;12.79;100.00;95005.38;5099543;28;20440;-87
2022/11/14 08:25:38;;;;;;;26.65;14.25;;;;;;;12.87;100.00;95003.00;5100051;28;20441;-86
2022/11/14 08:28:04;;;;;;;26.90;14.85;;;;;;;12.77;100.00;95008.28;5098223;28;20039;-87
2022/11/14 08:30:29;;;;;;;23.40;14.05;;;;;;;12.55;100.00;94998.03;5099254;28;20027;-86
2022/11/14 08:37:02;;;;;;;27.20;15.35;;;;;;;11.95;100.00;95004.53;5015722;28;20045;-87
2022/11/14 08:39:28;;;;;;;28.00;15.52;;;;;;;12.33;100.00;95006.97;5023500;28;20034;-87
2022/11/14 08:41:54;;;;;;;26.42;14.10;;;;;;;12.66;100.00;95004.84;5091788;28;20043;-87
2022/11/14 08:44:19;;;;;;;25.92;13.95;;;;;;;11.93;100.00;94998.75;5099170;28;20024;-87
2022/11/14 08:46:45;;;;;;;25.00;14.25;;;;;;;12.01;100.00;94992.22;5098608;28;20080;-87
2022/11/14 08:49:10;;;;;;;28.88;15.25;;;;;;;11.52;100.00;94996.78;5098701;28;20020;-87
2022/11/14 08:51:36;;;;;;;24.30;14.18;;;;;;;11.90;100.00;94993.22;5098409;28;20031;-87
2022/11/14 08:54:01;;;;;;;21.50;12.70;;;;;;;12.09;100.00;95004.06;5082002;28;20316;-87
2022/11/14 08:56:27;;;;;;;16.70;9.80;;;;;;;12.44;100.00;94987.53;5097966;28;20023;-87
2022/11/14 08:58:52;;;;;;;16.08;9.52;;;;;;;12.21;100.00;94996.72;5099215;28;20031;-87
2022/11/14 09:01:18;;;;;;;28.63;14.90;;;;;;;11.96;100.00;94995.59;5098948;28;20077;-87
2022/11/14 09:03:43;;;;;;;26.52;15.07;;;;;;;11.84;100.00;94998.47;5097895;28;20036;-87
2022/11/14 09:06:09;;;;;;;30.80;16.13;;;;;;;11.97;100.00;94996.38;5099097;28;20024;-87
2022/11/14 09:08:35;;;;;;;29.98;15.45;;;;;;;12.56;100.00;95003.03;5081149;28;20028;-87
2022/11/14 09:11:01;;;;;;;35.67;15.57;;;;;;;13.00;100.00;95003.50;5098475;28;20023;-86
2022/11/14 09:13:27;;;;;;;29.77;16.65;;;;;;;12.15;100.00;95003.00;5097643;28;20020;-87
2022/11/14 09:15:52;;;;;;;91.00;19.65;;;;;;;12.10;100.00;95001.16;5097530;28;20028;-87
2022/11/14 09:18:18;;;;;;;32.63;17.02;;;;;;;11.63;100.00;95009.97;5098703;28;20137;-87
2022/11/14 09:20:43;;;;;;;36.40;18.67;;;;;;;11.56;100.00;94992.63;5098268;28;20024;-87
2022/11/14 09:23:09;;;;;;;33.70;16.65;;;;;;;11.72;100.00;95003.94;5098666;28;20019;-86
2022/11/14 09:25:35;;;;;;;30.50;16.30;;;;;;;12.10;100.00;94998.53;5097657;28;20020;-87
2022/11/14 09:28:08;;;;;;;31.45;16.13;;;;;;;12.15;100.00;94992.50;5098032;28;20024;-86
2022/11/14 09:30:35;;;;;;;24.47;13.70;;;;;;;12.24;100.00;94998.81;5096572;28;20042;-87
2022/11/14 09:33:02;;;;;;;24.23;13.73;;;;;;;12.26;100.00;94995.91;5097898;28;20317;-87
2022/11/14 09:35:28;;;;;;;27.02;14.25;;;;;;;12.12;100.00;94987.78;5097213;28;20429;-87
2022/11/14 09:38:08;;;;;;;24.90;13.95;;;;;;;12.39;100.00;94995.41;5097255;28;20028;-87
2022/11/14 09:41:07;;;;;;;22.20;13.50;;;;;;;13.11;100.00;95007.69;5080061;28;20127;-87
2022/11/14 09:43:57;;;;;;;25.13;14.88;;;;;;;13.52;100.00;95006.00;5096446;28;20370;-87
2022/11/14 09:46:36;;;;;;;24.17;14.05;;;;;;;13.61;100.00;94993.84;5080012;28;20429;-87
2022/11/14 09:49:02;;;;;;;24.42;14.32;;;;;;;13.98;100.00;94995.25;5079614;28;20086;-87
2022/11/14 09:51:42;;;;;;;27.05;14.90;;;;;;;14.05;100.00;94991.50;5062782;28;20056;-87
2022/11/14 09:54:21;;;;;;;23.75;13.88;;;;;;;14.09;100.00;94992.53;5080017;28;20081;-87
2022/11/14 09:56:46;;;;;;;28.02;14.65;;;;;;;13.98;100.00;94995.25;5080019;28;20028;-87
2022/11/14 09:59:12;;;;;;;30.48;15.05;;;;;;;13.89;100.00;95001.34;5080349;28;20020;-87
2022/11/14 10:02:39;;;;;;;;;;;;;;;;;;;;;
2022/11/14 10:05:45;;;;;;;26.15;14.43;;;;;;;14.38;100.00;94999.72;5034417;28;20039;-86
2022/11/14 10:08:58;;;;;;;22.60;13.60;;;;;;;14.51;100.00;94999.09;5035207;28;20053;-88
2022/11/14 10:11:49;;;;;;;32.95;16.77;;;;;;;14.82;100.00;94990.13;5034641;28;20167;-87
2022/11/14 10:14:39;;;;;;;34.20;17.15;;;;;;;15.04;100.00;94988.88;5019226;28;20132;-87
2022/11/14 10:17:41;;;;;;;22.30;12.38;;;;;;;14.26;100.00;94986.88;5097174;28;20341;-87
2022/11/14 10:20:38;;;;;;;20.38;12.30;;;;;;;14.67;100.00;94981.28;5096952;28;20089;-87
2022/11/14 10:23:29;;;;;;;19.70;9.90;;;;;;;14.58;100.00;94975.03;5097221;28;20028;-87
2022/11/14 10:26:25;;;;;;;59.20;32.03;;;;;;;15.37;100.00;94973.22;5097458;28;20505;-86
2022/11/14 10:29:19;;;;;;;37.55;21.20;;;;;;;15.62;100.00;94969.44;5097233;28;20028;-86
2022/11/14 10:32:26;;;;;;;45.88;27.02;;;;;;;15.37;100.00;94970.56;5096526;28;20387;-86
2022/11/14 10:35:21;;;;;;;20.48;12.45;;;;;;;15.59;100.00;94972.66;5074273;28;20352;-86
2022/11/14 10:38:02;;;;;;;112.25;60.40;;;;;;;15.46;100.00;94971.53;5096800;28;20464;-87
2022/11/14 10:40:47;;;;;;;22.23;13.18;;;;;;;15.41;100.00;94972.38;5096530;28;20036;-86
2022/11/14 10:43:17;;;;;;;22.30;12.00;;;;;;;15.25;100.00;94963.81;5062725;28;20028;-86
2022/11/14 10:46:15;;;;;;;20.98;12.80;;;;;;;15.10;100.00;94966.63;5062356;28;20023;-86
2022/11/14 10:48:48;;;;;;;22.67;12.95;;;;;;;14.76;100.00;94970.94;5092844;28;20138;-86
2022/11/14 10:51:20;;;;;;;129.35;55.92;;;;;;;15.30;100.00;94968.25;5078582;28;20032;-86
2022/11/14 10:54:02;;;;;;;93.30;45.20;;;;;;;15.04;100.00;94962.50;5096700;28;20024;-86
2022/11/14 10:56:28;;;;;;;21.03;12.37;;;;;;;15.00;100.00;94949.06;5061940;28;20032;-86
2022/11/14 10:58:54;;;;;;;20.25;12.50;;;;;;;14.74;100.00;94959.09;5078395;28;20559;-86
2022/11/14 11:01:40;;;;;;;20.05;12.15;;;;;;;13.27;100.00;94962.91;5095777;28;20073;-86
2022/11/14 11:04:20;;;;;;;21.02;11.90;;;;;;;13.70;100.00;94955.38;5078499;28;20433;-86
2022/11/14 11:06:46;;;;;;;46.00;21.30;;;;;;;14.08;100.00;94960.13;5096575;28;20032;-86
2022/11/14 11:12:01;;;;;;;472.55;222.68;;;;;;;14.46;100.00;94956.94;5080939;28;20035;-86
2022/11/14 11:14:28;;;;;;;35.88;19.98;;;;;;;14.33;100.00;94954.94;5078581;28;20024;-86
2022/11/14 11:17:11;;;;;;;29.42;16.92;;;;;;;14.40;100.00;94944.88;5078445;28;20456;-86
2022/11/14 11:19:47;;;;;;;48.25;24.15;;;;;;;14.09;100.00;94950.38;5096596;28;20081;-86
2022/11/14 11:22:49;;;;;;;27.83;14.55;;;;;;;14.12;100.00;94950.59;5096203;28;20425;-86
2022/11/14 11:25:29;;;;;;;27.85;15.40;;;;;;;13.88;100.00;94953.16;5091402;28;20040;-85
2022/11/14 11:28:10;;;;;;;26.73;14.65;;;;;;;13.35;100.00;94957.09;5096793;28;20081;-85
2022/11/14 11:30:36;;;;;;;30.13;15.10;;;;;;;12.89;100.00;94947.50;5062527;28;20040;-85
2022/11/14 11:33:14;;;;;;;27.15;16.35;;;;;;;12.79;100.00;94950.97;5066412;28;20365;-85